sensor_id;sensor_type;location;lat;lon;timestamp;pressure;altitude;pressure_sealevel;temperature;humidity
75855;BME280;64502;59.976;30.316;2023-03-12T00:00:45;98288.56;;;-0.40;72.46
75855;BME280;64502;59.976;30.316;2023-03-12T00:03:11;98291.97;;;-0.40;72.71
75855;BME280;64502;59.976;30.316;2023-03-12T00:05:40;98287.63;;;-0.39;73.08
75855;BME280;64502;59.976;30.316;2023-03-12T00:08:07;98284.38;;;-0.43;72.64
75855;BME280;64502;59.976;30.316;2023-03-12T00:10:33;98286.19;;;-0.45;72.64
75855;BME280;64502;59.976;30.316;2023-03-12T00:12:58;98279.25;;;-0.45;73.16
75855;BME280;64502;59.976;30.316;2023-03-12T00:15:24;98268.72;;;-0.41;73.35
75855;BME280;64502;59.976;30.316;2023-03-12T00:17:49;98267.00;;;-0.41;72.75
75855;BME280;64502;59.976;30.316;2023-03-12T00:20:15;98276.44;;;-0.40;73.44
75855;BME280;64502;59.976;30.316;2023-03-12T00:22:41;98272.19;;;-0.41;73.24
75855;BME280;64502;59.976;30.316;2023-03-12T00:25:11;98268.72;;;-0.41;73.82
75855;BME280;64502;59.976;30.316;2023-03-12T00:27:36;98257.69;;;-0.45;73.80
75855;BME280;64502;59.976;30.316;2023-03-12T00:30:03;98252.34;;;-0.42;74.33
75855;BME280;64502;59.976;30.316;2023-03-12T00:32:31;98246.41;;;-0.44;73.89
75855;BME280;64502;59.976;30.316;2023-03-12T00:34:57;98243.81;;;-0.44;73.53
75855;BME280;64502;59.976;30.316;2023-03-12T00:37:23;98254.28;;;-0.46;73.07
75855;BME280;64502;59.976;30.316;2023-03-12T00:39:48;98250.00;;;-0.47;73.83
75855;BME280;64502;59.976;30.316;2023-03-12T00:42:13;98247.41;;;-0.47;73.97
75855;BME280;64502;59.976;30.316;2023-03-12T00:44:39;98246.59;;;-0.47;73.58
75855;BME280;64502;59.976;30.316;2023-03-12T00:47:05;98240.66;;;-0.49;73.81
75855;BME280;64502;59.976;30.316;2023-03-12T00:49:30;98235.78;;;-0.55;74.59
75855;BME280;64502;59.976;30.316;2023-03-12T00:51:56;98236.78;;;-0.58;74.07
75855;BME280;64502;59.976;30.316;2023-03-12T00:54:21;98235.19;;;-0.60;74.29
75855;BME280;64502;59.976;30.316;2023-03-12T00:56:47;98233.53;;;-0.61;73.74
75855;BME280;64502;59.976;30.316;2023-03-12T00:59:14;98241.63;;;-0.68;74.41
75855;BME280;64502;59.976;30.316;2023-03-12T01:01:39;98235.09;;;-0.75;74.63
75855;BME280;64502;59.976;30.316;2023-03-12T01:04:05;98236.25;;;-0.80;73.92
75855;BME280;64502;59.976;30.316;2023-03-12T01:06:30;98232.06;;;-0.83;74.18
75855;BME280;64502;59.976;30.316;2023-03-12T01:08:55;98233.88;;;-0.85;75.57
75855;BME280;64502;59.976;30.316;2023-03-12T01:11:21;98227.09;;;-0.87;75.54
75855;BME280;64502;59.976;30.316;2023-03-12T01:13:47;98227.28;;;-0.91;75.45
75855;BME280;64502;59.976;30.316;2023-03-12T01:16:13;98224.84;;;-0.94;75.39
75855;BME280;64502;59.976;30.316;2023-03-12T01:18:39;98225.78;;;-0.95;75.70
75855;BME280;64502;59.976;30.316;2023-03-12T01:21:04;98227.91;;;-1.03;74.82
75855;BME280;64502;59.976;30.316;2023-03-12T01:23:30;98224.94;;;-1.13;74.90
75855;BME280;64502;59.976;30.316;2023-03-12T01:25:55;98222.69;;;-1.19;75.13
75855;BME280;64502;59.976;30.316;2023-03-12T01:28:22;98221.25;;;-1.24;75.75
75855;BME280;64502;59.976;30.316;2023-03-12T01:30:48;98216.22;;;-1.27;75.48
75855;BME280;64502;59.976;30.316;2023-03-12T01:33:15;98222.00;;;-1.40;76.13
75855;BME280;64502;59.976;30.316;2023-03-12T01:35:41;98210.91;;;-1.42;76.49
75855;BME280;64502;59.976;30.316;2023-03-12T01:38:09;98216.34;;;-1.48;76.45
75855;BME280;64502;59.976;30.316;2023-03-12T01:40:37;98210.19;;;-1.45;75.58
75855;BME280;64502;59.976;30.316;2023-03-12T01:49:00;98205.88;;;-1.62;76.16
75855;BME280;64502;59.976;30.316;2023-03-12T01:51:32;98197.34;;;-1.64;76.82
75855;BME280;64502;59.976;30.316;2023-03-12T01:54:01;98198.31;;;-1.67;76.46
75855;BME280;64502;59.976;30.316;2023-03-12T01:56:31;98197.50;;;-1.67;77.00
75855;BME280;64502;59.976;30.316;2023-03-12T01:59:00;98197.50;;;-1.67;77.38
75855;BME280;64502;59.976;30.316;2023-03-12T02:01:28;98204.56;;;-1.71;76.85
75855;BME280;64502;59.976;30.316;2023-03-12T02:03:54;98201.59;;;-1.81;76.71
75855;BME280;64502;59.976;30.316;2023-03-12T02:06:25;98197.50;;;-1.85;76.71
75855;BME280;64502;59.976;30.316;2023-03-12T02:08:53;98193.03;;;-2.00;76.50
75855;BME280;64502;59.976;30.316;2023-03-12T02:11:19;98194.34;;;-2.09;77.16
75855;BME280;64502;59.976;30.316;2023-03-12T02:13:45;98189.47;;;-2.15;77.95
75855;BME280;64502;59.976;30.316;2023-03-12T02:16:10;98191.41;;;-2.20;77.61
75855;BME280;64502;59.976;30.316;2023-03-12T02:18:36;98187.28;;;-2.24;77.44
75855;BME280;64502;59.976;30.316;2023-03-12T02:26:22;98186.81;;;-2.32;78.33
75855;BME280;64502;59.976;30.316;2023-03-12T02:28:49;98193.09;;;-2.38;78.39
75855;BME280;64502;59.976;30.316;2023-03-12T02:31:18;98193.25;;;-2.41;78.13
75855;BME280;64502;59.976;30.316;2023-03-12T02:33:45;98200.38;;;-2.46;79.03
75855;BME280;64502;59.976;30.316;2023-03-12T02:36:11;98199.63;;;-2.48;78.66
75855;BME280;64502;59.976;30.316;2023-03-12T02:38:46;98194.56;;;-2.51;78.58
75855;BME280;64502;59.976;30.316;2023-03-12T02:46:47;98192.28;;;-2.57;79.28
75855;BME280;64502;59.976;30.316;2023-03-12T02:49:14;98195.84;;;-2.60;79.04
75855;BME280;64502;59.976;30.316;2023-03-12T02:51:41;98195.09;;;-2.62;78.71
75855;BME280;64502;59.976;30.316;2023-03-12T02:54:07;98185.72;;;-2.64;78.62
75855;BME280;64502;59.976;30.316;2023-03-12T02:56:33;98186.72;;;-2.67;78.86
75855;BME280;64502;59.976;30.316;2023-03-12T02:58:59;98191.94;;;-2.69;78.81
75855;BME280;64502;59.976;30.316;2023-03-12T03:01:25;98188.03;;;-2.77;78.85
75855;BME280;64502;59.976;30.316;2023-03-12T03:03:50;98199.19;;;-2.77;79.66
75855;BME280;64502;59.976;30.316;2023-03-12T03:06:16;98200.78;;;-2.74;78.95
75855;BME280;64502;59.976;30.316;2023-03-12T03:08:41;98201.75;;;-2.77;78.81
75855;BME280;64502;59.976;30.316;2023-03-12T03:11:07;98195.19;;;-2.84;79.41
75855;BME280;64502;59.976;30.316;2023-03-12T03:13:34;98200.47;;;-2.87;79.53
75855;BME280;64502;59.976;30.316;2023-03-12T03:15:59;98205.78;;;-2.90;79.97
75855;BME280;64502;59.976;30.316;2023-03-12T03:18:27;98197.25;;;-2.92;79.44
75855;BME280;64502;59.976;30.316;2023-03-12T03:23:21;98200.84;;;-2.95;80.08
75855;BME280;64502;59.976;30.316;2023-03-12T03:25:47;98194.00;;;-2.96;79.74
75855;BME280;64502;59.976;30.316;2023-03-12T03:28:12;98210.38;;;-2.97;79.84
75855;BME280;64502;59.976;30.316;2023-03-12T03:30:38;98194.06;;;-2.97;79.50
75855;BME280;64502;59.976;30.316;2023-03-12T03:33:04;98190.72;;;-2.99;79.76
75855;BME280;64502;59.976;30.316;2023-03-12T03:35:29;98192.59;;;-3.03;79.71
75855;BME280;64502;59.976;30.316;2023-03-12T03:37:55;98189.44;;;-3.09;79.98
75855;BME280;64502;59.976;30.316;2023-03-12T03:40:20;98193.91;;;-3.13;80.53
75855;BME280;64502;59.976;30.316;2023-03-12T03:42:46;98187.19;;;-3.17;80.48
75855;BME280;64502;59.976;30.316;2023-03-12T03:45:11;98192.19;;;-3.14;80.34
75855;BME280;64502;59.976;30.316;2023-03-12T03:47:37;98193.06;;;-3.14;79.95
75855;BME280;64502;59.976;30.316;2023-03-12T03:50:04;98193.94;;;-3.15;80.20
75855;BME280;64502;59.976;30.316;2023-03-12T03:52:30;98186.34;;;-3.18;80.03
75855;BME280;64502;59.976;30.316;2023-03-12T03:54:56;98200.91;;;-3.17;79.71
75855;BME280;64502;59.976;30.316;2023-03-12T03:57:23;98192.34;;;-3.17;80.17
75855;BME280;64502;59.976;30.316;2023-03-12T03:59:49;98201.50;;;-3.10;79.38
75855;BME280;64502;59.976;30.316;2023-03-12T04:02:14;98203.25;;;-3.10;79.07
75855;BME280;64502;59.976;30.316;2023-03-12T04:04:40;98198.28;;;-3.15;79.39
75855;BME280;64502;59.976;30.316;2023-03-12T04:07:05;98193.16;;;-3.17;79.25
75855;BME280;64502;59.976;30.316;2023-03-12T04:09:30;98207.75;;;-3.16;78.87
75855;BME280;64502;59.976;30.316;2023-03-12T04:11:56;98211.34;;;-3.20;78.83
75855;BME280;64502;59.976;30.316;2023-03-12T04:14:22;98210.53;;;-3.20;79.30
75855;BME280;64502;59.976;30.316;2023-03-12T04:16:47;98207.16;;;-3.22;79.45
75855;BME280;64502;59.976;30.316;2023-03-12T04:19:12;98213.19;;;-3.22;79.03
75855;BME280;64502;59.976;30.316;2023-03-12T04:21:38;98205.44;;;-3.22;79.47
75855;BME280;64502;59.976;30.316;2023-03-12T04:24:05;98211.22;;;-3.17;79.27
75855;BME280;64502;59.976;30.316;2023-03-12T04:26:30;98205.97;;;-3.14;78.54
75855;BME280;64502;59.976;30.316;2023-03-12T04:28:56;98212.78;;;-3.13;78.85
75855;BME280;64502;59.976;30.316;2023-03-12T04:31:21;98210.34;;;-3.16;79.39
75855;BME280;64502;59.976;30.316;2023-03-12T04:33:46;98201.81;;;-3.18;79.39
75855;BME280;64502;59.976;30.316;2023-03-12T04:36:12;98210.66;;;-3.23;79.63
75855;BME280;64502;59.976;30.316;2023-03-12T04:38:38;98199.50;;;-3.24;79.51
75855;BME280;64502;59.976;30.316;2023-03-12T04:41:10;98195.19;;;-3.23;79.94
75855;BME280;64502;59.976;30.316;2023-03-12T04:43:36;98197.78;;;-3.23;80.21
75855;BME280;64502;59.976;30.316;2023-03-12T04:46:02;98196.84;;;-3.22;80.00
75855;BME280;64502;59.976;30.316;2023-03-12T04:48:27;98196.81;;;-3.21;80.08
75855;BME280;64502;59.976;30.316;2023-03-12T04:50:53;98196.09;;;-3.24;79.90
75855;BME280;64502;59.976;30.316;2023-03-12T04:53:19;98205.56;;;-3.25;80.15
75855;BME280;64502;59.976;30.316;2023-03-12T04:55:45;98194.34;;;-3.24;80.08
75855;BME280;64502;59.976;30.316;2023-03-12T04:58:10;98202.97;;;-3.25;80.54
75855;BME280;64502;59.976;30.316;2023-03-12T05:00:38;98215.03;;;-3.25;80.43
75855;BME280;64502;59.976;30.316;2023-03-12T05:03:04;98204.72;;;-3.25;80.35
75855;BME280;64502;59.976;30.316;2023-03-12T05:05:29;98209.84;;;-3.24;80.40
75855;BME280;64502;59.976;30.316;2023-03-12T05:07:55;98217.75;;;-3.28;80.03
75855;BME280;64502;59.976;30.316;2023-03-12T05:10:20;98202.94;;;-3.23;80.02
75855;BME280;64502;59.976;30.316;2023-03-12T05:12:46;98199.66;;;-3.27;80.58
75855;BME280;64502;59.976;30.316;2023-03-12T05:15:11;98197.06;;;-3.27;80.19
75855;BME280;64502;59.976;30.316;2023-03-12T05:17:37;98207.53;;;-3.30;80.62
75855;BME280;64502;59.976;30.316;2023-03-12T05:20:02;98194.53;;;-3.28;80.36
75855;BME280;64502;59.976;30.316;2023-03-12T05:22:30;98203.13;;;-3.28;80.50
75855;BME280;64502;59.976;30.316;2023-03-12T05:24:56;98199.56;;;-3.25;80.74
75855;BME280;64502;59.976;30.316;2023-03-12T05:27:21;98209.84;;;-3.24;80.56
75855;BME280;64502;59.976;30.316;2023-03-12T05:29:50;98209.06;;;-3.26;80.23
75855;BME280;64502;59.976;30.316;2023-03-12T05:32:15;98208.22;;;-3.26;80.67
75855;BME280;64502;59.976;30.316;2023-03-12T05:34:41;98193.66;;;-3.27;80.21
75855;BME280;64502;59.976;30.316;2023-03-12T05:37:06;98217.75;;;-3.28;80.79
75855;BME280;64502;59.976;30.316;2023-03-12T05:39:32;98211.63;;;-3.26;80.38
75855;BME280;64502;59.976;30.316;2023-03-12T05:41:57;98215.03;;;-3.25;80.28
75855;BME280;64502;59.976;30.316;2023-03-12T05:44:24;98214.16;;;-3.24;79.91
75855;BME280;64502;59.976;30.316;2023-03-12T05:46:50;98221.88;;;-3.24;80.15
75855;BME280;64502;59.976;30.316;2023-03-12T05:49:16;98220.06;;;-3.22;80.08
75855;BME280;64502;59.976;30.316;2023-03-12T05:51:41;98231.09;;;-3.19;78.91
75855;BME280;64502;59.976;30.316;2023-03-12T05:54:08;98226.97;;;-3.23;80.37
75855;BME280;64502;59.976;30.316;2023-03-12T05:56:37;98235.47;;;-3.21;80.09
75855;BME280;64502;59.976;30.316;2023-03-12T05:59:03;98238.00;;;-3.19;80.03
75855;BME280;64502;59.976;30.316;2023-03-12T06:01:30;98239.72;;;-3.20;79.75
75855;BME280;64502;59.976;30.316;2023-03-12T06:03:56;98240.59;;;-3.19;80.09
75855;BME280;64502;59.976;30.316;2023-03-12T06:06:22;98242.25;;;-3.18;78.99
75855;BME280;64502;59.976;30.316;2023-03-12T06:08:49;98249.06;;;-3.17;79.10
75855;BME280;64502;59.976;30.316;2023-03-12T06:11:14;98241.59;;;-3.23;79.04
75855;BME280;64502;59.976;30.316;2023-03-12T06:13:40;98259.78;;;-3.26;79.10
75855;BME280;64502;59.976;30.316;2023-03-12T06:16:10;98259.78;;;-3.26;79.02
75855;BME280;64502;59.976;30.316;2023-03-12T06:18:35;98259.09;;;-3.30;79.23
75855;BME280;64502;59.976;30.316;2023-03-12T06:23:38;98260.41;;;-3.42;78.41
75855;BME280;64502;59.976;30.316;2023-03-12T06:26:04;98256.88;;;-3.39;78.07
75855;BME280;64502;59.976;30.316;2023-03-12T06:28:30;98263.78;;;-3.40;78.50
75855;BME280;64502;59.976;30.316;2023-03-12T06:30:55;98267.19;;;-3.39;78.14
75855;BME280;64502;59.976;30.316;2023-03-12T06:33:21;98262.03;;;-3.39;77.95
75855;BME280;64502;59.976;30.316;2023-03-12T06:35:46;98268.00;;;-3.39;77.99
75855;BME280;64502;59.976;30.316;2023-03-12T06:38:12;98273.81;;;-3.33;77.95
75855;BME280;64502;59.976;30.316;2023-03-12T06:40:38;98275.03;;;-3.42;77.92
75855;BME280;64502;59.976;30.316;2023-03-12T06:43:03;98277.09;;;-3.50;78.47
75855;BME280;64502;59.976;30.316;2023-03-12T06:45:29;98274.38;;;-3.47;78.38
75855;BME280;64502;59.976;30.316;2023-03-12T06:47:54;98270.97;;;-3.48;78.56
75855;BME280;64502;59.976;30.316;2023-03-12T06:50:20;98270.97;;;-3.48;78.51
75855;BME280;64502;59.976;30.316;2023-03-12T06:52:45;98274.53;;;-3.50;78.44
75855;BME280;64502;59.976;30.316;2023-03-12T06:55:11;98279.50;;;-3.46;77.91
75855;BME280;64502;59.976;30.316;2023-03-12T06:57:36;98277.81;;;-3.47;77.85
75855;BME280;64502;59.976;30.316;2023-03-12T07:00:03;98287.22;;;-3.46;78.02
75855;BME280;64502;59.976;30.316;2023-03-12T07:02:29;98279.41;;;-3.44;77.92
75855;BME280;64502;59.976;30.316;2023-03-12T07:04:55;98285.63;;;-3.48;78.43
75855;BME280;64502;59.976;30.316;2023-03-12T07:07:21;98300.91;;;-3.44;78.03
75855;BME280;64502;59.976;30.316;2023-03-12T07:09:46;98297.59;;;-3.47;77.54
75855;BME280;64502;59.976;30.316;2023-03-12T07:12:12;98303.56;;;-3.47;77.59
75855;BME280;64502;59.976;30.316;2023-03-12T07:14:37;98294.97;;;-3.46;77.15
75855;BME280;64502;59.976;30.316;2023-03-12T07:17:03;98285.47;;;-3.45;77.72
75855;BME280;64502;59.976;30.316;2023-03-12T07:19:29;98301.88;;;-3.46;77.70
75855;BME280;64502;59.976;30.316;2023-03-12T07:21:55;98290.63;;;-3.45;77.36
75855;BME280;64502;59.976;30.316;2023-03-12T07:24:21;98294.19;;;-3.48;77.49
75855;BME280;64502;59.976;30.316;2023-03-12T07:26:46;98304.63;;;-3.51;77.51
75855;BME280;64502;59.976;30.316;2023-03-12T07:29:12;98303.00;;;-3.53;77.72
75855;BME280;64502;59.976;30.316;2023-03-12T07:31:38;98295.91;;;-3.48;77.98
75855;BME280;64502;59.976;30.316;2023-03-12T07:34:03;98306.22;;;-3.48;77.48
75855;BME280;64502;59.976;30.316;2023-03-12T07:36:30;98306.16;;;-3.47;77.47
75855;BME280;64502;59.976;30.316;2023-03-12T07:38:56;98301.75;;;-3.43;77.86
75855;BME280;64502;59.976;30.316;2023-03-12T07:41:22;98305.94;;;-3.41;77.70
75855;BME280;64502;59.976;30.316;2023-03-12T07:43:49;98299.81;;;-3.38;77.62
75855;BME280;64502;59.976;30.316;2023-03-12T07:46:15;98317.72;;;-3.35;77.30
75855;BME280;64502;59.976;30.316;2023-03-12T07:48:43;98318.69;;;-3.38;77.49
75855;BME280;64502;59.976;30.316;2023-03-12T07:51:13;98317.88;;;-3.38;77.50
75855;BME280;64502;59.976;30.316;2023-03-12T07:53:41;98327.44;;;-3.42;77.89
75855;BME280;64502;59.976;30.316;2023-03-12T07:56:07;98329.25;;;-3.44;77.49
75855;BME280;64502;59.976;30.316;2023-03-12T07:58:33;98322.41;;;-3.45;77.89
75855;BME280;64502;59.976;30.316;2023-03-12T08:01:01;98325.06;;;-3.46;77.60
75855;BME280;64502;59.976;30.316;2023-03-12T08:03:27;98323.56;;;-3.52;77.47
75855;BME280;64502;59.976;30.316;2023-03-12T08:05:58;98328.91;;;-3.57;77.43
75855;BME280;64502;59.976;30.316;2023-03-12T08:08:25;98322.00;;;-3.56;77.67
75855;BME280;64502;59.976;30.316;2023-03-12T08:10:52;98327.81;;;-3.51;77.77
75855;BME280;64502;59.976;30.316;2023-03-12T08:13:19;98326.84;;;-3.48;77.70
75855;BME280;64502;59.976;30.316;2023-03-12T08:15:48;98342.19;;;-3.45;76.95
75855;BME280;64502;59.976;30.316;2023-03-12T08:18:13;98332.06;;;-3.50;78.05
75855;BME280;64502;59.976;30.316;2023-03-12T08:20:39;98338.00;;;-3.48;78.36
75855;BME280;64502;59.976;30.316;2023-03-12T08:23:04;98341.00;;;-3.37;77.99
75855;BME280;64502;59.976;30.316;2023-03-12T08:25:30;98336.31;;;-3.27;77.23
75855;BME280;64502;59.976;30.316;2023-03-12T08:27:55;98336.06;;;-3.21;76.75
75855;BME280;64502;59.976;30.316;2023-03-12T08:30:21;98341.88;;;-3.16;76.83
75855;BME280;64502;59.976;30.316;2023-03-12T08:32:46;98339.81;;;-3.07;76.60
75855;BME280;64502;59.976;30.316;2023-03-12T08:35:12;98343.03;;;-3.02;75.69
75855;BME280;64502;59.976;30.316;2023-03-12T08:37:40;98343.81;;;-3.00;75.31
75855;BME280;64502;59.976;30.316;2023-03-12T08:40:06;98361.22;;;-3.05;74.94
75855;BME280;64502;59.976;30.316;2023-03-12T08:42:39;98355.22;;;-3.06;74.89
75855;BME280;64502;59.976;30.316;2023-03-12T08:45:05;98348.00;;;-3.18;73.94
75855;BME280;64502;59.976;30.316;2023-03-12T08:47:31;98359.31;;;-3.22;73.76
75855;BME280;64502;59.976;30.316;2023-03-12T08:49:56;98358.34;;;-3.20;73.71
75855;BME280;64502;59.976;30.316;2023-03-12T08:52:22;98372.88;;;-3.17;73.25
75855;BME280;64502;59.976;30.316;2023-03-12T08:54:48;98383.19;;;-3.17;72.99
75855;BME280;64502;59.976;30.316;2023-03-12T08:57:13;98384.03;;;-3.17;73.15
75855;BME280;64502;59.976;30.316;2023-03-12T08:59:39;98394.25;;;-3.14;72.76
75855;BME280;64502;59.976;30.316;2023-03-12T09:02:05;98384.28;;;-3.23;72.72
75855;BME280;64502;59.976;30.316;2023-03-12T09:04:31;98392.13;;;-3.26;73.11
75855;BME280;64502;59.976;30.316;2023-03-12T09:06:56;98400.78;;;-3.27;73.63
75855;BME280;64502;59.976;30.316;2023-03-12T09:09:22;98397.53;;;-3.32;72.96
75855;BME280;64502;59.976;30.316;2023-03-12T09:11:47;98410.47;;;-3.33;73.19
75855;BME280;64502;59.976;30.316;2023-03-12T09:14:12;98399.94;;;-3.27;72.23
75855;BME280;64502;59.976;30.316;2023-03-12T09:16:38;98393.88;;;-3.26;72.33
75855;BME280;64502;59.976;30.316;2023-03-12T09:19:03;98412.75;;;-3.26;71.96
75855;BME280;64502;59.976;30.316;2023-03-12T09:21:29;98406.78;;;-3.26;72.32
75855;BME280;64502;59.976;30.316;2023-03-12T09:23:54;98408.25;;;-3.21;72.52
75855;BME280;64502;59.976;30.316;2023-03-12T09:26:20;98409.09;;;-3.20;72.36
75855;BME280;64502;59.976;30.316;2023-03-12T09:28:45;98416.03;;;-3.22;72.24
75855;BME280;64502;59.976;30.316;2023-03-12T09:31:11;98415.22;;;-3.23;72.07
75855;BME280;64502;59.976;30.316;2023-03-12T09:33:37;98427.44;;;-3.28;72.23
75855;BME280;64502;59.976;30.316;2023-03-12T09:36:03;98425.53;;;-3.23;72.84
75855;BME280;64502;59.976;30.316;2023-03-12T09:38:28;98426.31;;;-3.21;73.31
75855;BME280;64502;59.976;30.316;2023-03-12T09:40:56;98434.22;;;-3.25;73.60
75855;BME280;64502;59.976;30.316;2023-03-12T09:45:57;98436.94;;;-3.28;73.98
75855;BME280;64502;59.976;30.316;2023-03-12T09:48:31;98452.09;;;-3.21;73.74
75855;BME280;64502;59.976;30.316;2023-03-12T09:51:00;98456.88;;;-3.33;73.86
75855;BME280;64502;59.976;30.316;2023-03-12T09:53:34;98452.28;;;-3.25;74.22
75855;BME280;64502;59.976;30.316;2023-03-12T09:56:04;98449.47;;;-3.19;73.63
75855;BME280;64502;59.976;30.316;2023-03-12T09:58:36;98454.41;;;-3.13;73.16
75855;BME280;64502;59.976;30.316;2023-03-12T10:01:09;98463.56;;;-3.06;73.36
75855;BME280;64502;59.976;30.316;2023-03-12T10:06:22;98474.66;;;-2.82;72.18
75855;BME280;64502;59.976;30.316;2023-03-12T10:14:49;98452.00;;;-2.53;70.07
75855;BME280;64502;59.976;30.316;2023-03-12T10:20:45;98477.75;;;-2.11;70.15
75855;BME280;64502;59.976;30.316;2023-03-12T10:26:36;98486.03;;;-1.84;69.63
75855;BME280;64502;59.976;30.316;2023-03-12T10:29:10;98485.84;;;-1.79;70.14
75855;BME280;64502;59.976;30.316;2023-03-12T10:31:58;98493.41;;;-1.74;69.70
75855;BME280;64502;59.976;30.316;2023-03-12T10:34:38;98484.50;;;-1.88;69.58
75855;BME280;64502;59.976;30.316;2023-03-12T10:37:21;98499.59;;;-2.18;69.58
75855;BME280;64502;59.976;30.316;2023-03-12T10:39:48;98504.28;;;-2.48;69.72
75855;BME280;64502;59.976;30.316;2023-03-12T10:42:20;98495.22;;;-2.58;69.79
75855;BME280;64502;59.976;30.316;2023-03-12T10:44:49;98522.38;;;-2.70;69.83
75855;BME280;64502;59.976;30.316;2023-03-12T10:47:37;98536.72;;;-2.85;70.76
75855;BME280;64502;59.976;30.316;2023-03-12T10:50:21;98535.25;;;-2.92;72.42
75855;BME280;64502;59.976;30.316;2023-03-12T10:52:49;98547.59;;;-3.00;72.31
75855;BME280;64502;59.976;30.316;2023-03-12T10:55:24;98545.34;;;-3.08;71.85
75855;BME280;64502;59.976;30.316;2023-03-12T10:57:51;98542.91;;;-3.13;72.19
75855;BME280;64502;59.976;30.316;2023-03-12T11:00:20;98549.88;;;-3.15;72.64
75855;BME280;64502;59.976;30.316;2023-03-12T11:02:56;98555.69;;;-3.09;71.29
75855;BME280;64502;59.976;30.316;2023-03-12T11:05:27;98561.81;;;-3.12;70.31
75855;BME280;64502;59.976;30.316;2023-03-12T11:07:54;98543.09;;;-3.17;69.11
75855;BME280;64502;59.976;30.316;2023-03-12T11:10:23;98549.31;;;-3.23;69.34
75855;BME280;64502;59.976;30.316;2023-03-12T11:13:08;98571.72;;;-3.25;69.02
75855;BME280;64502;59.976;30.316;2023-03-12T11:15:45;98559.16;;;-3.58;69.41
75855;BME280;64502;59.976;30.316;2023-03-12T11:18:36;98572.59;;;-3.73;69.66
75855;BME280;64502;59.976;30.316;2023-03-12T11:23:42;98561.84;;;-3.84;69.65
75855;BME280;64502;59.976;30.316;2023-03-12T11:26:22;98566.16;;;-3.85;69.74
75855;BME280;64502;59.976;30.316;2023-03-12T11:28:51;98572.91;;;-3.82;69.69
75855;BME280;64502;59.976;30.316;2023-03-12T11:31:22;98573.47;;;-3.74;69.09
75855;BME280;64502;59.976;30.316;2023-03-12T11:33:51;98569.31;;;-3.76;68.97
75855;BME280;64502;59.976;30.316;2023-03-12T11:36:21;98575.28;;;-3.76;68.54
75855;BME280;64502;59.976;30.316;2023-03-12T11:39:12;98575.59;;;-3.85;68.93
75855;BME280;64502;59.976;30.316;2023-03-12T11:47:24;98582.56;;;-3.87;69.97
75855;BME280;64502;59.976;30.316;2023-03-12T11:50:14;98602.41;;;-3.91;70.66
75855;BME280;64502;59.976;30.316;2023-03-12T11:55:40;98614.09;;;-4.07;70.80
75855;BME280;64502;59.976;30.316;2023-03-12T12:00:56;98598.63;;;-4.06;71.55
75855;BME280;64502;59.976;30.316;2023-03-12T12:11:48;98608.19;;;-4.36;71.80
75855;BME280;64502;59.976;30.316;2023-03-12T12:17:19;98624.50;;;-4.37;73.68
75855;BME280;64502;59.976;30.316;2023-03-12T12:23:00;98628.66;;;-4.33;74.80
75855;BME280;64502;59.976;30.316;2023-03-12T12:28:29;98630.41;;;-4.07;71.46
75855;BME280;64502;59.976;30.316;2023-03-12T12:31:22;98637.59;;;-3.90;70.75
75855;BME280;64502;59.976;30.316;2023-03-12T12:36:47;98650.13;;;-3.79;69.35
75855;BME280;64502;59.976;30.316;2023-03-12T12:39:26;98642.19;;;-3.73;68.91
75855;BME280;64502;59.976;30.316;2023-03-12T12:41:56;98657.63;;;-3.73;68.01
75855;BME280;64502;59.976;30.316;2023-03-12T12:44:30;98653.88;;;-3.63;67.36
75855;BME280;64502;59.976;30.316;2023-03-12T12:46:59;98665.22;;;-3.68;65.65
75855;BME280;64502;59.976;30.316;2023-03-12T12:49:44;98684.63;;;-3.58;65.42
75855;BME280;64502;59.976;30.316;2023-03-12T12:52:12;98668.19;;;-3.54;63.84
75855;BME280;64502;59.976;30.316;2023-03-12T13:03:05;98688.44;;;-3.18;63.41
75855;BME280;64502;59.976;30.316;2023-03-12T13:05:43;98687.53;;;-3.17;62.28
75855;BME280;64502;59.976;30.316;2023-03-12T13:09:15;98694.09;;;-3.08;62.95
75855;BME280;64502;59.976;30.316;2023-03-12T13:13:48;98712.56;;;-2.96;62.23
75855;BME280;64502;59.976;30.316;2023-03-12T13:19:03;98711.84;;;-3.24;62.63
75855;BME280;64502;59.976;30.316;2023-03-12T13:26:51;98729.72;;;-3.45;64.00
75855;BME280;64502;59.976;30.316;2023-03-12T13:29:41;98736.72;;;-3.48;64.41
75855;BME280;64502;59.976;30.316;2023-03-12T13:43:16;98727.09;;;-3.43;63.78
75855;BME280;64502;59.976;30.316;2023-03-12T13:46:32;98743.81;;;-3.55;64.68
75855;BME280;64502;59.976;30.316;2023-03-12T13:49:03;98741.19;;;-3.53;65.44
75855;BME280;64502;59.976;30.316;2023-03-12T13:51:30;98758.22;;;-3.49;65.71
75855;BME280;64502;59.976;30.316;2023-03-12T13:54:00;98741.03;;;-3.49;64.98
75855;BME280;64502;59.976;30.316;2023-03-12T13:56:29;98744.63;;;-3.28;64.81
75855;BME280;64502;59.976;30.316;2023-03-12T14:01:28;98746.16;;;-2.72;63.18
75855;BME280;64502;59.976;30.316;2023-03-12T14:03:58;98753.31;;;-2.57;62.82
75855;BME280;64502;59.976;30.316;2023-03-12T14:06:27;98766.69;;;-2.69;61.83
75855;BME280;64502;59.976;30.316;2023-03-12T14:17:18;98770.28;;;-3.23;62.90
75855;BME280;64502;59.976;30.316;2023-03-12T14:19:55;98770.59;;;-3.32;62.55
75855;BME280;64502;59.976;30.316;2023-03-12T14:22:28;98794.75;;;-3.35;62.68
75855;BME280;64502;59.976;30.316;2023-03-12T14:24:58;98802.56;;;-3.38;63.02
75855;BME280;64502;59.976;30.316;2023-03-12T14:27:30;98824.97;;;-3.40;63.09
75855;BME280;64502;59.976;30.316;2023-03-12T14:32:41;98803.78;;;-3.50;63.71
75855;BME280;64502;59.976;30.316;2023-03-12T14:35:18;98808.00;;;-3.47;64.90
75855;BME280;64502;59.976;30.316;2023-03-12T14:37:59;98813.25;;;-3.50;64.12
75855;BME280;64502;59.976;30.316;2023-03-12T14:43:00;98842.47;;;-3.50;64.74
75855;BME280;64502;59.976;30.316;2023-03-12T14:45:25;98827.09;;;-3.53;64.16
75855;BME280;64502;59.976;30.316;2023-03-12T14:47:54;98816.78;;;-3.53;64.27
75855;BME280;64502;59.976;30.316;2023-03-12T14:52:49;98845.94;;;-3.51;64.91
75855;BME280;64502;59.976;30.316;2023-03-12T14:55:22;98834.72;;;-3.50;65.10
75855;BME280;64502;59.976;30.316;2023-03-12T14:57:48;98847.50;;;-3.47;64.38